createdAt,value
2023-06-09T00:01:27.039Z,96582.81
2023-06-09T00:03:28.723Z,96584.22
2023-06-09T00:05:33.184Z,96589.81
2023-06-09T00:07:37.161Z,96580.31
2023-06-09T00:09:38.839Z,96581.59
2023-06-09T00:11:40.572Z,96581.72
2023-06-09T00:13:42.223Z,96583.63
2023-06-09T00:15:43.905Z,96581.53
2023-06-09T00:17:46.973Z,96587.47
2023-06-09T00:19:50.486Z,96579.69
2023-06-09T00:21:52.073Z,96576.22
2023-06-09T00:23:53.718Z,96575.22
2023-06-09T00:25:56.022Z,96578.69
2023-06-09T00:27:57.622Z,96566.63
2023-06-09T00:29:59.171Z,96575.88
2023-06-09T00:32:00.692Z,96569.09
2023-06-09T00:34:02.320Z,96568.38
2023-06-09T00:36:04.017Z,96563.13
2023-06-09T00:38:05.942Z,96560.41
2023-06-09T00:40:08.468Z,96560.28
2023-06-09T00:42:10.052Z,96552.78
2023-06-09T00:44:13.357Z,96554.16
2023-06-09T00:46:15.944Z,96557.78
2023-06-09T00:48:17.888Z,96557.78
2023-06-09T00:50:21.204Z,96567.84
2023-06-09T00:52:23.569Z,96559.97
2023-06-09T00:54:25.400Z,96560.03
2023-06-09T00:56:27.266Z,96561.81
2023-06-09T00:58:28.847Z,96562.69
2023-06-09T01:00:30.895Z,96561.81
2023-06-09T01:02:32.744Z,96554.25
2023-06-09T01:04:36.248Z,96556.59
2023-06-09T01:07:09.304Z,96571.03
2023-06-09T01:09:21.425Z,96566.94
2023-06-09T01:11:48.013Z,96568.56
2023-06-09T01:13:54.716Z,96567.44
2023-06-09T01:16:06.744Z,96570.59
2023-06-09T01:18:10.225Z,96570.47
2023-06-09T01:20:17.241Z,96563.91
2023-06-09T01:22:29.594Z,96560.66
2023-06-09T01:24:47.449Z,96571.28
2023-06-09T01:26:51.824Z,96575.03
2023-06-09T01:28:56.540Z,96566.53
2023-06-09T01:30:59.376Z,96570.06
2023-06-09T01:33:07.337Z,96566.34
2023-06-09T01:35:10.833Z,96565.28
2023-06-09T01:37:13.667Z,96564.50
2023-06-09T01:39:15.764Z,96563.69
2023-06-09T01:41:18.404Z,96554.69
2023-06-09T01:43:20.249Z,96555.78
2023-06-09T01:45:21.944Z,96557.34
2023-06-09T01:47:24.065Z,96554.63
2023-06-09T01:49:31.081Z,96550.06
2023-06-09T01:51:45.117Z,96551.78
2023-06-09T01:53:54.756Z,96550.16
2023-06-09T01:56:15.445Z,96544.28
2023-06-09T01:58:24.958Z,96546.34
2023-06-09T02:00:27.909Z,96551.78
2023-06-09T02:02:31.565Z,96542.78
2023-06-09T02:04:35.748Z,96543.34
2023-06-09T02:06:37.891Z,96539.00
2023-06-09T02:08:40.844Z,96544.09
2023-06-09T02:10:42.799Z,96541.72
2023-06-09T02:12:44.431Z,96541.94
2023-06-09T02:14:46.136Z,96540.00
2023-06-09T02:16:48.757Z,96538.78
2023-06-09T02:18:50.532Z,96543.78
2023-06-09T02:20:52.187Z,96532.50
2023-06-09T02:22:53.743Z,96537.06
2023-06-09T02:24:56.347Z,96532.38
2023-06-09T02:26:58.556Z,96534.56
2023-06-09T02:29:00.723Z,96520.97
2023-06-09T02:31:06.746Z,96532.50
2023-06-09T02:33:08.591Z,96534.13
2023-06-09T02:35:11.661Z,96534.34
2023-06-09T02:37:13.585Z,96531.31
2023-06-09T02:39:18.475Z,96529.59
2023-06-09T02:41:21.443Z,96530.66
2023-06-09T02:43:23.043Z,96521.94
2023-06-09T02:45:24.732Z,96530.41
2023-06-09T02:47:27.156Z,96526.91
2023-06-09T02:49:29.292Z,96533.50
2023-06-09T02:51:31.358Z,96533.81
2023-06-09T02:53:33.506Z,96532.84
2023-06-09T02:55:36.674Z,96533.66
2023-06-09T02:57:38.935Z,96523.94
2023-06-09T02:59:41.637Z,96533.41
2023-06-09T03:01:44.532Z,96532.06
2023-06-09T03:03:49.765Z,96531.50
2023-06-09T03:05:53.349Z,96527.56
2023-06-09T03:07:55.198Z,96534.53
2023-06-09T03:09:58.731Z,96540.34
2023-06-09T03:12:00.582Z,96536.19
2023-06-09T03:14:02.280Z,96540.59
2023-06-09T03:16:04.482Z,96538.69
2023-06-09T03:18:10.945Z,96538.88
2023-06-09T03:20:13.016Z,96536.66
2023-06-09T03:22:16.658Z,96532.13
2023-06-09T03:24:20.196Z,96542.75
2023-06-09T03:26:22.091Z,96545.53
2023-06-09T03:28:24.032Z,96542.06
2023-06-09T03:30:25.585Z,96553.63
2023-06-09T03:32:27.243Z,96544.88
2023-06-09T03:34:30.310Z,96559.31
2023-06-09T03:36:34.874Z,96561.75
2023-06-09T03:38:38.032Z,96555.13
2023-06-09T03:40:40.314Z,96561.97
2023-06-09T03:42:42.736Z,96563.22
2023-06-09T03:44:44.373Z,96551.69
2023-06-09T03:46:46.064Z,96546.41
2023-06-09T03:48:48.097Z,96555.94
2023-06-09T03:50:50.683Z,96548.81
2023-06-09T03:52:53.923Z,96549.63
2023-06-09T03:54:56.075Z,96558.84
2023-06-09T03:56:57.805Z,96560.53
2023-06-09T03:58:59.500Z,96565.53
2023-06-09T04:01:02.407Z,96565.81
2023-06-09T04:03:04.868Z,96559.47
2023-06-09T04:05:07.196Z,96569.63
2023-06-09T04:07:09.065Z,96572.09
2023-06-09T04:09:11.101Z,96565.09
2023-06-09T04:11:12.870Z,96570.38
2023-06-09T04:13:14.884Z,96572.19
2023-06-09T04:15:17.848Z,96570.38
2023-06-09T04:17:21.347Z,96569.31
2023-06-09T04:19:23.522Z,96573.59
2023-06-09T04:21:25.180Z,96575.25
2023-06-09T04:23:29.414Z,96574.03
2023-06-09T04:25:35.853Z,96581.63
2023-06-09T04:27:43.449Z,96579.19
2023-06-09T04:29:46.396Z,96575.41
2023-06-09T04:31:49.474Z,96573.44
2023-06-09T04:33:55.241Z,96578.00
2023-06-09T04:35:57.072Z,96578.72
2023-06-09T04:38:03.729Z,96578.72
2023-06-09T04:40:09.957Z,96581.59
2023-06-09T04:42:12.418Z,96578.88
2023-06-09T04:44:14.945Z,96580.97
2023-06-09T04:46:18.686Z,96582.03
2023-06-09T04:48:20.796Z,96585.97
2023-06-09T04:50:22.598Z,96579.72
2023-06-09T04:52:25.006Z,96579.69
2023-06-09T04:54:29.825Z,96583.63
2023-06-09T04:56:35.070Z,96582.22
2023-06-09T04:58:36.860Z,96581.94
2023-06-09T05:00:40.655Z,96583.88
2023-06-09T05:02:43.238Z,96582.44
2023-06-09T05:04:44.944Z,96590.75
2023-06-09T05:06:46.735Z,96595.28
2023-06-09T05:08:51.977Z,96583.88
2023-06-09T05:10:54.450Z,96590.16
2023-06-09T05:12:56.679Z,96582.66
2023-06-09T05:14:58.448Z,96588.38
2023-06-09T05:17:01.236Z,96595.78
2023-06-09T05:19:03.491Z,96586.44
2023-06-09T05:21:06.096Z,96595.25
2023-06-09T05:23:08.672Z,96589.59
2023-06-09T05:25:10.880Z,96590.19
2023-06-09T05:27:12.906Z,96597.38
2023-06-09T05:29:14.710Z,96588.38
2023-06-09T05:31:17.980Z,96597.06
2023-06-09T05:33:19.742Z,96588.03
2023-06-09T05:35:21.370Z,96598.78
2023-06-09T05:37:23.019Z,96597.28
2023-06-09T05:39:24.729Z,96601.84
2023-06-09T05:41:26.908Z,96605.25
2023-06-09T05:43:29.018Z,96608.09
2023-06-09T05:45:30.611Z,96607.16
2023-06-09T05:47:32.868Z,96616.47
2023-06-09T05:49:35.445Z,96615.53
2023-06-09T05:51:37.550Z,96618.09
2023-06-09T05:53:39.712Z,96623.88
2023-06-09T05:55:42.181Z,96612.88
2023-06-09T05:57:46.589Z,96614.13
2023-06-09T05:59:48.171Z,96618.09
2023-06-09T06:01:51.001Z,96623.13
2023-06-09T06:03:52.640Z,96623.03
2023-06-09T06:05:54.628Z,96624.63
2023-06-09T06:07:58.545Z,96623.41
2023-06-09T06:10:00.268Z,96632.66
2023-06-09T06:12:02.167Z,96617.63
2023-06-09T06:14:03.778Z,96617.22
2023-06-09T06:16:05.587Z,96622.19
2023-06-09T06:18:07.466Z,96619.03
2023-06-09T06:20:10.571Z,96620.91
2023-06-09T06:22:12.531Z,96622.72
2023-06-09T06:24:14.458Z,96626.75
2023-06-09T06:26:16.679Z,96635.72
2023-06-09T06:28:18.256Z,96634.91
2023-06-09T06:30:19.862Z,96648.41
2023-06-09T06:32:21.681Z,96645.34
2023-06-09T06:34:23.239Z,96648.91
2023-06-09T06:36:27.132Z,96653.25
2023-06-09T06:38:29.065Z,96653.44
2023-06-09T06:40:30.627Z,96653.22
2023-06-09T06:42:32.469Z,96652.63
2023-06-09T06:44:43.480Z,96658.03
2023-06-09T06:46:45.111Z,96661.91
2023-06-09T06:48:46.700Z,96661.94
2023-06-09T06:50:48.256Z,96660.31
2023-06-09T06:52:49.962Z,96659.88
2023-06-09T06:54:51.590Z,96657.97
2023-06-09T06:56:53.194Z,96664.09
2023-06-09T06:58:54.832Z,96658.94
2023-06-09T07:00:56.879Z,96655.22
2023-06-09T07:02:58.746Z,96659.84
2023-06-09T07:05:00.697Z,96655.41
2023-06-09T07:07:03.706Z,96658.16
2023-06-09T07:09:06.005Z,96668.94
2023-06-09T07:11:07.886Z,96670.47
2023-06-09T07:13:09.536Z,96665.25
2023-06-09T07:15:11.342Z,96670.06
2023-06-09T07:17:12.908Z,96661.31
2023-06-09T07:19:14.512Z,96663.59
2023-06-09T07:21:16.144Z,96665.38
2023-06-09T07:23:17.731Z,96655.84
2023-06-09T07:25:19.640Z,96657.31
2023-06-09T07:27:21.919Z,96666.88
2023-06-09T07:29:23.502Z,96657.91
2023-06-09T07:31:25.153Z,96656.69
2023-06-09T07:33:32.227Z,96660.44
2023-06-09T07:35:34.101Z,96660.72
2023-06-09T07:37:40.379Z,96672.25
2023-06-09T07:39:42.149Z,96672.00
2023-06-09T07:41:43.724Z,96666.00
2023-06-09T07:43:45.919Z,96671.97
2023-06-09T07:45:47.615Z,96667.22
2023-06-09T07:47:49.272Z,96680.81
2023-06-09T07:49:51.125Z,96668.25
2023-06-09T07:51:53.461Z,96660.97
2023-06-09T07:53:55.372Z,96665.22
2023-06-09T07:55:57.911Z,96661.69
2023-06-09T07:57:59.964Z,96655.66
2023-06-09T08:00:01.531Z,96656.47
2023-06-09T08:02:04.436Z,96658.72
2023-06-09T08:04:05.992Z,96647.06
2023-06-09T08:06:09.117Z,96651.56
2023-06-09T08:08:11.049Z,96642.63
2023-06-09T08:10:12.811Z,96634.34
2023-06-09T08:12:16.538Z,96636.59
2023-06-09T08:14:18.850Z,96645.63
2023-06-09T08:16:20.551Z,96640.13
2023-06-09T08:18:22.274Z,96638.59
2023-06-09T08:20:23.875Z,96645.91
2023-06-09T08:22:25.570Z,96638.84
2023-06-09T08:24:27.205Z,96644.00
2023-06-09T08:26:28.808Z,96633.66
2023-06-09T08:28:30.553Z,96644.50
2023-06-09T08:30:32.348Z,96639.25
2023-06-09T08:32:34.860Z,96648.69
2023-06-09T08:34:36.897Z,96644.09
2023-06-09T08:36:38.492Z,96646.50
2023-06-09T08:38:40.065Z,96642.63
2023-06-09T08:40:41.840Z,96651.97
2023-06-09T08:42:47.601Z,96649.28
2023-06-09T08:44:51.928Z,96635.19
2023-06-09T08:46:54.634Z,96649.13
2023-06-09T08:48:58.849Z,96644.03
2023-06-09T08:51:01.315Z,96648.75
2023-06-09T08:53:03.798Z,96648.88
2023-06-09T08:55:06.737Z,96643.31
2023-06-09T08:57:10.323Z,96643.66
2023-06-09T08:59:13.376Z,96648.28
2023-06-09T09:01:15.882Z,96651.13
2023-06-09T09:03:18.381Z,96651.25
2023-06-09T09:05:20.837Z,96647.88
2023-06-09T09:07:22.544Z,96643.47
2023-06-09T09:09:24.180Z,96644.03
2023-06-09T09:11:27.913Z,96649.06
2023-06-09T09:13:30.630Z,96647.69
2023-06-09T09:15:32.496Z,96641.47
2023-06-09T09:17:34.873Z,96646.31
2023-06-09T09:19:37.448Z,96651.53
2023-06-09T09:21:40.227Z,96651.53
2023-06-09T09:23:41.919Z,96645.44
2023-06-09T09:25:45.146Z,96643.47
2023-06-09T09:27:59.742Z,96644.53
2023-06-09T09:30:01.287Z,96649.91
2023-06-09T09:32:03.705Z,96656.50
2023-06-09T09:34:05.676Z,96647.78
2023-06-09T09:36:11.477Z,96654.47
2023-06-09T09:38:17.848Z,96656.91
2023-06-09T09:40:19.475Z,96649.72
2023-06-09T09:42:22.212Z,96654.63
2023-06-09T09:44:24.092Z,96648.47
2023-06-09T09:46:26.317Z,96648.88
2023-06-09T09:48:28.720Z,96646.56
2023-06-09T09:50:31.226Z,96647.13
2023-06-09T09:52:35.708Z,96653.38
2023-06-09T09:54:37.809Z,96642.22
2023-06-09T09:56:39.522Z,96646.88
2023-06-09T09:58:43.230Z,96637.28
2023-06-09T10:00:48.019Z,96649.66
2023-06-09T10:02:54.546Z,96641.31
2023-06-09T10:04:57.831Z,96644.84
2023-06-09T10:07:02.453Z,96630.75
2023-06-09T10:09:05.496Z,96644.13
2023-06-09T10:11:08.190Z,96645.91
2023-06-09T10:13:13.108Z,96638.19
2023-06-09T10:15:15.393Z,96637.63
2023-06-09T10:17:20.044Z,96627.97
2023-06-09T10:19:24.205Z,96635.19
2023-06-09T10:21:26.381Z,96636.00
2023-06-09T10:23:28.971Z,96626.25
2023-06-09T10:25:30.762Z,96633.34
2023-06-09T10:27:32.338Z,96630.44
2023-06-09T10:29:34.481Z,96622.75
2023-06-09T10:31:41.968Z,96624.88
2023-06-09T10:33:46.289Z,96628.84
2023-06-09T10:35:49.869Z,96628.16
2023-06-09T10:37:54.972Z,96620.94
2023-06-09T10:40:12.237Z,96618.06
2023-06-09T10:42:44.390Z,96622.56
2023-06-09T10:44:58.416Z,96620.66
2023-06-09T10:47:00.394Z,96614.44
2023-06-09T10:49:02.088Z,96616.41
2023-06-09T10:51:28.844Z,96616.13
2023-06-09T10:53:31.044Z,96605.84
2023-06-09T10:55:32.574Z,96618.03
2023-06-09T10:57:42.201Z,96610.34
2023-06-09T10:59:43.914Z,96611.22
2023-06-09T11:02:09.582Z,96603.25
2023-06-09T11:04:29.583Z,96613.31
2023-06-09T11:06:31.132Z,96614.19
2023-06-09T11:09:09.898Z,96604.28
2023-06-09T11:11:16.257Z,96610.13
2023-06-09T11:13:37.454Z,96592.81
2023-06-09T11:16:02.158Z,96603.81
2023-06-09T11:18:17.275Z,96604.31
2023-06-09T11:20:20.496Z,96607.00
2023-06-09T11:22:23.199Z,96601.13
2023-06-09T11:24:49.232Z,96597.66
2023-06-09T11:26:51.667Z,96601.53
2023-06-09T11:28:53.591Z,96600.81
2023-06-09T11:31:03.649Z,96593.97
2023-06-09T11:33:05.982Z,96586.63
2023-06-09T11:35:08.084Z,96587.97
2023-06-09T11:37:10.780Z,96591.84
2023-06-09T11:39:12.546Z,96595.06
2023-06-09T11:41:15.078Z,96600.28
2023-06-09T11:43:20.499Z,96580.03
2023-06-09T11:45:26.408Z,96587.84
2023-06-09T11:47:31.860Z,96580.50
2023-06-09T11:49:34.361Z,96581.56
2023-06-09T11:51:54.943Z,96583.25
2023-06-09T11:53:56.609Z,96578.47
2023-06-09T11:56:01.250Z,96583.44
2023-06-09T11:58:04.110Z,96578.47
2023-06-09T12:00:14.452Z,96569.38
2023-06-09T12:02:18.309Z,96561.72
2023-06-09T12:04:20.053Z,96573.22
2023-06-09T12:06:21.688Z,96575.44
2023-06-09T12:08:23.412Z,96569.69
2023-06-09T12:10:28.807Z,96571.00
2023-06-09T12:12:30.702Z,96561.63
2023-06-09T12:14:33.130Z,96560.16
2023-06-09T12:16:34.708Z,96548.66
2023-06-09T12:18:36.224Z,96558.47
2023-06-09T12:20:38.493Z,96556.41
2023-06-09T12:22:40.644Z,96551.03
2023-06-09T12:24:42.292Z,96549.84
2023-06-09T12:26:48.854Z,96551.69
2023-06-09T12:28:56.255Z,96540.84
2023-06-09T12:31:13.069Z,96539.63
2023-06-09T12:33:19.869Z,96542.88
2023-06-09T12:35:21.575Z,96541.31
2023-06-09T12:37:23.851Z,96548.94
2023-06-09T12:39:34.276Z,96538.34
2023-06-09T12:41:40.993Z,96538.50
2023-06-09T12:43:53.092Z,96534.06
2023-06-09T12:45:57.112Z,96538.56
2023-06-09T12:47:58.783Z,96541.94
2023-06-09T12:50:01.260Z,96546.03
2023-06-09T12:52:03.166Z,96541.59
2023-06-09T12:54:08.605Z,96543.38
2023-06-09T12:56:10.972Z,96537.97
2023-06-09T12:58:12.725Z,96546.06
2023-06-09T13:00:21.770Z,96542.16
2023-06-09T13:02:24.654Z,96540.59
2023-06-09T13:04:26.599Z,96527.50
2023-06-09T13:06:28.276Z,96524.91
2023-06-09T13:08:29.790Z,96535.69
2023-06-09T13:10:32.103Z,96531.78
2023-06-09T13:12:33.684Z,96533.47
2023-06-09T13:14:35.229Z,96527.69
2023-06-09T13:16:37.161Z,96531.06
2023-06-09T13:18:40.840Z,96537.00
2023-06-09T13:20:43.119Z,96523.94
2023-06-09T13:22:45.875Z,96530.59
2023-06-09T13:24:47.730Z,96526.09
2023-06-09T13:26:50.502Z,96529.66
2023-06-09T13:28:52.040Z,96519.00
2023-06-09T13:30:53.755Z,96531.09
2023-06-09T13:32:55.448Z,96531.03
2023-06-09T13:34:57.302Z,96520.66
2023-06-09T13:36:59.305Z,96525.31
2023-06-09T13:39:01.095Z,96522.72
2023-06-09T13:41:02.894Z,96524.69
2023-06-09T13:43:04.518Z,96526.88
2023-06-09T13:45:07.177Z,96531.59
2023-06-09T13:47:09.269Z,96532.00
2023-06-09T13:49:10.909Z,96529.28
2023-06-09T13:51:12.471Z,96527.47
2023-06-09T13:53:14.148Z,96531.88
2023-06-09T13:55:15.845Z,96524.72
2023-06-09T13:57:17.800Z,96523.09
2023-06-09T13:59:22.812Z,96521.63
2023-06-09T14:01:24.524Z,96516.16
2023-06-09T14:03:26.654Z,96517.06
2023-06-09T14:05:28.276Z,96513.78
2023-06-09T14:07:30.089Z,96512.63
2023-06-09T14:09:31.745Z,96518.91
2023-06-09T14:11:33.235Z,96510.25
2023-06-09T14:13:35.017Z,96515.03
2023-06-09T14:15:37.162Z,96511.25
2023-06-09T14:17:39.074Z,96506.03
2023-06-09T14:19:41.136Z,96509.53
2023-06-09T14:21:43.232Z,96514.81
2023-06-09T14:23:44.971Z,96505.03
2023-06-09T14:25:46.520Z,96505.88
2023-06-09T14:27:50.498Z,96498.72
2023-06-09T14:29:53.039Z,96496.34
2023-06-09T14:31:55.166Z,96510.75
2023-06-09T14:33:56.810Z,96502.59
2023-06-09T14:35:58.371Z,96504.84
2023-06-09T14:38:02.482Z,96499.59
2023-06-09T14:40:04.415Z,96493.00
2023-06-09T14:42:07.653Z,96491.59
2023-06-09T14:44:09.240Z,96478.41
2023-06-09T14:46:11.213Z,96495.81
2023-06-09T14:48:12.917Z,96480.69
2023-06-09T14:50:22.330Z,96478.00
2023-06-09T14:52:23.954Z,96483.00
2023-06-09T14:54:25.543Z,96482.59
2023-06-09T14:56:29.208Z,96477.63
2023-06-09T14:58:31.387Z,96475.78
2023-06-09T15:00:33.736Z,96480.38
2023-06-09T15:02:35.692Z,96475.72
2023-06-09T15:04:37.479Z,96469.88
2023-06-09T15:06:39.065Z,96464.19
2023-06-09T15:08:41.307Z,96471.75
2023-06-09T15:10:46.095Z,96458.94
2023-06-09T15:12:47.647Z,96458.34
2023-06-09T15:14:50.152Z,96453.81
2023-06-09T15:16:57.137Z,96463.13
2023-06-09T15:18:59.856Z,96463.00
2023-06-09T15:21:01.408Z,96461.75
2023-06-09T15:23:04.240Z,96464.38
2023-06-09T15:25:10.217Z,96460.59
2023-06-09T15:27:12.180Z,96456.16
2023-06-09T15:29:14.438Z,96457.69
2023-06-09T15:31:15.998Z,96469.16
2023-06-09T15:33:18.764Z,96457.03
2023-06-09T15:35:20.374Z,96457.41
2023-06-09T15:37:21.889Z,96462.75
2023-06-09T15:39:23.410Z,96454.72
2023-06-09T15:41:26.611Z,96455.06
2023-06-09T15:43:34.782Z,96458.00
2023-06-09T15:45:40.978Z,96441.97
2023-06-09T15:47:42.661Z,96445.88
2023-06-09T15:49:44.287Z,96444.66
2023-06-09T15:51:45.848Z,96436.34
2023-06-09T15:53:47.575Z,96442.84
2023-06-09T15:55:50.871Z,96439.34
2023-06-09T15:57:52.807Z,96440.06
2023-06-09T15:59:54.317Z,96437.44
2023-06-09T16:01:55.960Z,96429.94
2023-06-09T16:03:57.512Z,96441.94
2023-06-09T16:05:59.233Z,96442.81
2023-06-09T16:08:10.999Z,96442.72
2023-06-09T16:10:12.626Z,96437.16
2023-06-09T16:12:14.566Z,96444.47
2023-06-09T16:14:16.071Z,96445.28
2023-06-09T16:16:17.656Z,96424.06
2023-06-09T16:18:22.559Z,96428.41
2023-06-09T16:20:24.258Z,96424.72
2023-06-09T16:22:28.941Z,96430.78
2023-06-09T16:24:30.568Z,96428.84
2023-06-09T16:26:32.431Z,96429.91
2023-06-09T16:28:34.006Z,96427.28
2023-06-09T16:30:39.282Z,96427.78
2023-06-09T16:32:43.586Z,96422.53
2023-06-09T16:34:45.531Z,96427.16
2023-06-09T16:36:47.104Z,96429.00
2023-06-09T16:38:48.697Z,96437.88
2023-06-09T16:40:51.065Z,96430.16
2023-06-09T16:42:52.997Z,96430.06
2023-06-09T16:44:54.525Z,96441.28
2023-06-09T16:46:57.019Z,96437.63
2023-06-09T16:48:58.630Z,96446.59
2023-06-09T16:51:03.816Z,96427.41
2023-06-09T16:53:05.918Z,96427.69
2023-06-09T16:55:08.260Z,96426.38
2023-06-09T16:57:10.928Z,96433.88
2023-06-09T16:59:12.696Z,96440.03
2023-06-09T17:01:14.284Z,96438.97
2023-06-09T17:03:16.044Z,96436.59
2023-06-09T17:05:17.884Z,96440.66
2023-06-09T17:07:19.486Z,96442.47
2023-06-09T17:09:21.167Z,96436.41
2023-06-09T17:11:22.685Z,96447.13
2023-06-09T17:13:24.481Z,96443.47
2023-06-09T17:15:26.062Z,96446.59
2023-06-09T17:17:27.703Z,96447.03
2023-06-09T17:19:29.188Z,96443.69
2023-06-09T17:21:34.650Z,96443.97
2023-06-09T17:23:36.666Z,96441.53
2023-06-09T17:25:38.793Z,96445.81
2023-06-09T17:27:40.896Z,96443.44
2023-06-09T17:29:42.512Z,96443.97
2023-06-09T17:31:44.100Z,96437.84
2023-06-09T17:33:45.815Z,96445.25
2023-06-09T17:35:47.838Z,96440.97
2023-06-09T17:37:49.313Z,96441.09
2023-06-09T17:39:50.911Z,96450.03
2023-06-09T17:41:52.687Z,96445.25
2023-06-09T17:43:54.583Z,96436.22
2023-06-09T17:45:56.162Z,96442.78
2023-06-09T17:47:58.059Z,96437.66
2023-06-09T17:49:59.505Z,96439.00
2023-06-09T17:52:01.305Z,96439.22
2023-06-09T17:54:04.956Z,96442.06
2023-06-09T17:56:07.026Z,96442.06
2023-06-09T17:58:11.797Z,96438.13
2023-06-09T18:00:15.281Z,96447.78
2023-06-09T18:02:17.294Z,96440.50
2023-06-09T18:04:18.873Z,96446.50
2023-06-09T18:06:20.509Z,96444.56
2023-06-09T18:08:22.314Z,96442.00
2023-06-09T18:10:24.029Z,96444.19
2023-06-09T18:12:25.674Z,96440.41
2023-06-09T18:14:27.207Z,96446.00
2023-06-09T18:16:28.816Z,96446.44
2023-06-09T18:18:30.384Z,96443.94
2023-06-09T18:20:32.269Z,96450.34
2023-06-09T18:22:34.240Z,96447.34
2023-06-09T18:24:36.347Z,96451.38
2023-06-09T18:26:37.889Z,96451.59
2023-06-09T18:28:39.568Z,96454.44
2023-06-09T18:30:43.802Z,96445.38
2023-06-09T18:32:45.382Z,96447.75
2023-06-09T18:34:50.312Z,96442.88
2023-06-09T18:36:51.878Z,96444.63
2023-06-09T18:38:53.462Z,96444.28
2023-06-09T18:40:56.156Z,96449.44
2023-06-09T18:42:57.945Z,96446.97
2023-06-09T18:44:59.441Z,96445.53
2023-06-09T18:47:01.302Z,96443.78
2023-06-09T18:49:03.017Z,96444.06
2023-06-09T18:51:04.867Z,96455.97
2023-06-09T18:53:06.473Z,96456.06
2023-06-09T18:55:08.922Z,96456.06
2023-06-09T18:57:10.684Z,96463.16
2023-06-09T18:59:12.219Z,96456.19
2023-06-09T19:01:13.824Z,96462.47
2023-06-09T19:03:15.636Z,96459.50
2023-06-09T19:05:17.343Z,96461.28
2023-06-09T19:07:18.915Z,96465.38
2023-06-09T19:09:20.459Z,96460.84
2023-06-09T19:11:22.229Z,96462.16
2023-06-09T19:13:24.239Z,96472.50
2023-06-09T19:15:26.841Z,96464.75
2023-06-09T19:17:28.501Z,96468.28
2023-06-09T19:19:30.380Z,96473.59
2023-06-09T19:21:31.895Z,96479.16
2023-06-09T19:23:34.020Z,96474.38
2023-06-09T19:25:35.725Z,96482.69
2023-06-09T19:27:37.336Z,96481.22
2023-06-09T19:29:38.957Z,96480.22
2023-06-09T19:31:40.527Z,96484.50
2023-06-09T19:33:43.274Z,96488.00
2023-06-09T19:35:45.215Z,96491.31
2023-06-09T19:37:46.690Z,96493.31
2023-06-09T19:39:52.965Z,96494.81
2023-06-09T19:41:54.735Z,96492.34
2023-06-09T19:43:56.861Z,96504.59
2023-06-09T19:46:00.883Z,96506.09
2023-06-09T19:48:02.683Z,96499.31
2023-06-09T19:50:04.592Z,96495.06
2023-06-09T19:52:06.398Z,96501.31
2023-06-09T19:54:08.276Z,96506.34
2023-06-09T19:56:12.362Z,96509.59
2023-06-09T19:58:14.085Z,96514.88
2023-06-09T20:00:19.269Z,96509.09
2023-06-09T20:02:21.597Z,96516.59
2023-06-09T20:04:23.509Z,96524.13
2023-06-09T20:06:25.221Z,96521.59
2023-06-09T20:08:26.961Z,96531.91
2023-06-09T20:10:29.457Z,96524.13
2023-06-09T20:12:31.438Z,96528.34
2023-06-09T20:14:33.591Z,96526.09
2023-06-09T20:16:37.548Z,96527.09
2023-06-09T20:18:39.564Z,96529.09
2023-06-09T20:20:42.859Z,96530.56
2023-06-09T20:22:46.885Z,96525.78
2023-06-09T20:24:48.659Z,96531.78
2023-06-09T20:26:51.372Z,96534.97
2023-06-09T20:28:53.150Z,96532.66
2023-06-09T20:30:57.538Z,96526.63
2023-06-09T20:32:59.450Z,96537.59
2023-06-09T20:35:01.512Z,96542.75
2023-06-09T20:37:04.469Z,96538.97
2023-06-09T20:39:10.188Z,96539.34
2023-06-09T20:41:11.890Z,96546.03
2023-06-09T20:43:18.580Z,96548.84
2023-06-09T20:45:22.780Z,96542.81
2023-06-09T20:47:25.200Z,96551.00
2023-06-09T20:49:29.275Z,96553.16
2023-06-09T20:51:30.921Z,96548.09
2023-06-09T20:53:32.642Z,96554.84
2023-06-09T20:55:34.507Z,96556.81
2023-06-09T20:57:36.208Z,96562.97
2023-06-09T20:59:39.052Z,96569.56
2023-06-09T21:01:40.666Z,96567.88
2023-06-09T21:03:48.088Z,96569.78
2023-06-09T21:05:50.631Z,96563.75
2023-06-09T21:07:52.169Z,96567.44
2023-06-09T21:09:53.740Z,96571.81
2023-06-09T21:11:55.951Z,96573.59
2023-06-09T21:13:58.033Z,96571.19
2023-06-09T21:15:59.635Z,96567.56
2023-06-09T21:18:02.397Z,96571.06
2023-06-09T21:20:13.062Z,96564.72
2023-06-09T21:22:14.878Z,96568.25
2023-06-09T21:24:16.782Z,96568.16
2023-06-09T21:26:19.437Z,96576.13
2023-06-09T21:28:21.018Z,96569.22
2023-06-09T21:30:22.717Z,96570.25
2023-06-09T21:32:24.652Z,96574.56
2023-06-09T21:34:26.470Z,96570.50
2023-06-09T21:36:28.334Z,96574.31
2023-06-09T21:38:29.987Z,96575.03
2023-06-09T21:40:31.632Z,96566.13
2023-06-09T21:42:33.170Z,96562.41
2023-06-09T21:44:34.739Z,96570.94
2023-06-09T21:46:36.353Z,96581.91
2023-06-09T21:48:37.887Z,96581.91
2023-06-09T21:50:39.853Z,96583.63
2023-06-09T21:52:41.583Z,96587.19
2023-06-09T21:54:43.474Z,96579.25
2023-06-09T21:56:45.036Z,96586.16
2023-06-09T21:58:46.825Z,96580.75
2023-06-09T22:00:48.723Z,96586.09
2023-06-09T22:02:50.343Z,96580.59
2023-06-09T22:04:51.884Z,96582.56
2023-06-09T22:06:53.759Z,96579.41
2023-06-09T22:08:55.281Z,96577.16
2023-06-09T22:10:56.869Z,96575.91
2023-06-09T22:12:58.395Z,96581.69
2023-06-09T22:15:00.199Z,96574.69
2023-06-09T22:17:03.145Z,96575.25
2023-06-09T22:19:06.059Z,96578.41
2023-06-09T22:21:09.071Z,96575.91
2023-06-09T22:23:10.673Z,96580.38
2023-06-09T22:25:12.496Z,96582.38
2023-06-09T22:27:14.726Z,96578.66
2023-06-09T22:29:16.253Z,96578.88
2023-06-09T22:31:18.145Z,96574.34
2023-06-09T22:33:19.709Z,96579.34
2023-06-09T22:35:21.398Z,96573.56
2023-06-09T22:37:22.999Z,96575.09
2023-06-09T22:39:24.919Z,96569.69
2023-06-09T22:41:27.449Z,96571.34
2023-06-09T22:43:29.091Z,96577.59
2023-06-09T22:45:30.690Z,96571.34
2023-06-09T22:47:32.358Z,96579.09
2023-06-09T22:49:36.225Z,96570.78
2023-06-09T22:51:37.724Z,96575.03
2023-06-09T22:53:44.804Z,96572.28
2023-06-09T22:55:46.587Z,96569.28
2023-06-09T22:57:50.094Z,96572.44
2023-06-09T22:59:51.717Z,96571.19
2023-06-09T23:01:53.504Z,96568.91
2023-06-09T23:03:55.203Z,96564.03
2023-06-09T23:05:57.561Z,96564.31
2023-06-09T23:07:59.121Z,96572.53
2023-06-09T23:10:00.779Z,96562.50
2023-06-09T23:12:02.541Z,96567.25
2023-06-09T23:14:05.337Z,96564.69
2023-06-09T23:16:07.379Z,96567.25
2023-06-09T23:18:10.046Z,96561.78
2023-06-09T23:20:12.232Z,96565.00
2023-06-09T23:22:14.635Z,96562.94
2023-06-09T23:24:16.635Z,96566.22
2023-06-09T23:26:18.808Z,96565.78
2023-06-09T23:28:21.014Z,96560.50
2023-06-09T23:30:22.692Z,96558.41
2023-06-09T23:32:24.406Z,96555.88
2023-06-09T23:34:26.201Z,96558.88
2023-06-09T23:36:29.122Z,96559.81
2023-06-09T23:38:30.833Z,96557.59
2023-06-09T23:40:32.791Z,96558.06
2023-06-09T23:42:34.356Z,96556.53
2023-06-09T23:44:36.462Z,96554.25
2023-06-09T23:46:38.012Z,96552.06
2023-06-09T23:48:39.560Z,96550.91
2023-06-09T23:50:41.254Z,96546.78
2023-06-09T23:52:42.874Z,96552.03
2023-06-09T23:54:44.497Z,96542.88
2023-06-09T23:56:46.057Z,96546.97
2023-06-09T23:58:47.570Z,96549.25
